Cabery, Illinois
Current Conditions -  °F | °C
As of 8:15 PM on Sunday 25 Jan 2015 (Local Time) from KIKK Reporting Station
Unknown Precip Unknown Precip  
Wind Chill: 17°   Ceiling: 1600
Heat Index: 28°   Visibility: 10mi
Dew Point: 24°   Wind: 13mph
Humidity: 85%   Direction: 30°NNE
Pressure: 29.94"   Gusts: 21mph
Location:  40.99°N, 88.2°W
Report Text: KIKK 260215Z AUTO 03011G18KT 10SM UP BKN016 OVC060 M02/M05 A2994 RMK AO2 T10251047
Loading
Personal Weather Stations






























Interactive Weather Map New forecast layout! Learn more

10-Day Weather Forecast

Advertisements
Track Severe Weather on mobile